Time;durP1;ratioP1;P1;durP2;ratioP2;P2;SDS_P1;SDS_P2;PMS_P1;PMS_P2;Temp;Humidity;BMP_temperature;BMP_pressure;BME280_temperature;BME280_humidity;BME280_pressure;Samples;Min_cycle;Max_cycle;Signal;HPM_P1;HPM_P2
2023/04/07 00:02:16;;;;;;;26.30;22.02;;;7.20;99.90;;;;;;4986838;28;20061;-56
2023/04/07 00:04:42;;;;;;;26.42;21.63;;;7.30;99.90;;;;;;4989199;28;20047;-56
2023/04/07 00:07:08;;;;;;;26.85;22.60;;;7.20;99.90;;;;;;4988859;28;20053;-55
2023/04/07 00:09:33;;;;;;;27.08;22.70;;;7.10;99.90;;;;;;4988700;28;20046;-56
2023/04/07 00:12:01;;;;;;;25.85;20.35;;;7.10;99.90;;;;;;4989426;28;20092;-56
2023/04/07 00:14:27;;;;;;;25.92;20.80;;;7.20;99.90;;;;;;4987737;28;20145;-55
2023/04/07 00:16:53;;;;;;;25.05;21.15;;;7.10;99.90;;;;;;4988682;28;20057;-57
2023/04/07 00:19:18;;;;;;;25.10;19.73;;;7.10;99.90;;;;;;4987954;28;21322;-55
2023/04/07 00:21:44;;;;;;;25.70;20.80;;;7.10;99.90;;;;;;4987815;28;20058;-56
2023/04/07 00:24:10;;;;;;;23.98;19.60;;;7.10;99.90;;;;;;4988337;28;20053;-55
2023/04/07 00:26:36;;;;;;;23.85;19.35;;;7.10;99.90;;;;;;4987714;28;20055;-55
2023/04/07 00:29:01;;;;;;;24.35;20.08;;;7.20;99.90;;;;;;4988043;28;20072;-56
2023/04/07 00:31:27;;;;;;;22.92;18.52;;;7.10;99.90;;;;;;4987661;28;20046;-55
2023/04/07 00:33:54;;;;;;;23.92;18.45;;;7.10;99.90;;;;;;4987014;28;20057;-56
2023/04/07 00:36:20;;;;;;;21.85;19.23;;;7.10;99.90;;;;;;4987987;28;20046;-56
2023/04/07 00:38:45;;;;;;;22.67;19.15;;;7.10;99.90;;;;;;4988337;28;20065;-55
2023/04/07 00:41:11;;;;;;;24.35;19.08;;;7.00;99.90;;;;;;4988234;28;20038;-56
2023/04/07 00:43:37;;;;;;;21.80;18.98;;;7.10;99.90;;;;;;4987942;28;20674;-56
2023/04/07 00:46:02;;;;;;;22.27;19.58;;;7.60;99.90;;;;;;4986170;28;20057;-55
2023/04/07 00:48:28;;;;;;;22.55;19.38;;;7.10;99.90;;;;;;4988189;28;20077;-56
2023/04/07 00:50:54;;;;;;;21.95;18.95;;;7.00;99.90;;;;;;4987963;28;20051;-55
2023/04/07 00:53:19;;;;;;;23.02;18.63;;;7.00;99.90;;;;;;4987981;28;20049;-56
2023/04/07 00:55:45;;;;;;;23.90;20.90;;;7.30;99.90;;;;;;4987850;28;20476;-56
2023/04/07 00:58:11;;;;;;;22.48;18.90;;;7.00;99.90;;;;;;4995038;28;20070;-56
2023/04/07 01:01:15;;;;;;;20.52;18.23;;;7.00;99.90;;;;;;4990649;28;20057;-56
2023/04/07 01:04:25;;;;;;;22.27;19.25;;;7.00;99.90;;;;;;4987443;28;20504;-56
2023/04/07 01:09:55;;;;;;;22.08;18.85;;;6.90;99.90;;;;;;4964381;26;20472;-59
2023/04/07 01:12:40;;;;;;;22.25;17.70;;;7.00;99.90;;;;;;4993394;28;20068;-59
2023/04/07 01:15:11;;;;;;;20.73;18.33;;;7.00;99.90;;;;;;4986860;28;20042;-57
2023/04/07 01:17:46;;;;;;;23.00;18.40;;;7.00;99.90;;;;;;4987388;28;20052;-59
2023/04/07 01:20:16;;;;;;;21.98;18.48;;;7.00;99.90;;;;;;4987652;28;20042;-59
2023/04/07 01:22:56;;;;;;;22.00;18.52;;;7.00;99.90;;;;;;4986868;28;20050;-59
2023/04/07 01:25:53;;;;;;;21.05;18.27;;;7.00;99.90;;;;;;4987920;28;20104;-60
2023/04/07 01:28:57;;;;;;;21.70;18.58;;;7.00;99.90;;;;;;4974622;28;20050;-59
2023/04/07 01:31:25;;;;;;;23.13;18.83;;;6.90;99.90;;;;;;4987549;28;20046;-58
2023/04/07 01:33:54;;;;;;;24.30;20.30;;;7.00;99.90;;;;;;4986942;28;20100;-59
2023/04/07 01:36:21;;;;;;;21.20;18.73;;;7.10;99.90;;;;;;4986989;28;20050;-58
2023/04/07 01:38:49;;;;;;;23.20;19.70;;;7.00;99.90;;;;;;4986932;28;20058;-59
2023/04/07 01:41:17;;;;;;;21.88;19.13;;;6.90;99.90;;;;;;4986808;28;20042;-59
2023/04/07 01:43:43;;;;;;;21.02;18.38;;;6.90;99.90;;;;;;4986382;28;20054;-58
2023/04/07 01:46:08;;;;;;;21.50;19.20;;;7.00;99.90;;;;;;4986735;28;20381;-59
2023/04/07 01:48:35;;;;;;;22.17;18.92;;;7.00;99.90;;;;;;4986885;28;20134;-59
2023/04/07 01:51:05;;;;;;;21.98;18.98;;;7.00;99.90;;;;;;4987152;28;20104;-59
2023/04/07 01:53:31;;;;;;;21.30;19.00;;;6.90;99.90;;;;;;4986666;28;20050;-56
2023/04/07 01:55:56;;;;;;;21.20;18.88;;;7.00;99.90;;;;;;4986645;28;20075;-59
2023/04/07 01:58:22;;;;;;;22.90;19.02;;;6.90;99.90;;;;;;4994961;28;20508;-59
2023/04/07 02:00:49;;;;;;;23.92;19.33;;;6.90;99.90;;;;;;4987500;28;20396;-58
2023/04/07 02:03:45;;;;;;;22.58;19.23;;;6.90;99.90;;;;;;4986698;28;20426;-58
2023/04/07 02:06:14;;;;;;;23.38;19.75;;;7.00;99.90;;;;;;4983967;28;20061;-59
2023/04/07 02:08:46;;;;;;;22.58;19.35;;;7.00;99.90;;;;;;4986069;28;20042;-57
2023/04/07 02:11:14;;;;;;;22.50;19.83;;;6.90;99.90;;;;;;4986225;28;20057;-57
2023/04/07 02:13:42;;;;;;;22.08;19.25;;;6.90;99.90;;;;;;4987251;28;20358;-59
2023/04/07 02:16:09;;;;;;;23.70;20.30;;;6.90;99.90;;;;;;4985992;28;20051;-60
2023/04/07 02:18:36;;;;;;;22.42;19.70;;;6.90;99.90;;;;;;4985571;28;20047;-59
2023/04/07 02:21:04;;;;;;;22.20;19.58;;;7.30;99.90;;;;;;4986856;28;20050;-59
2023/04/07 02:23:30;;;;;;;24.88;19.77;;;7.00;99.90;;;;;;4989519;28;20049;-60
2023/04/07 02:25:57;;;;;;;22.17;18.63;;;7.00;99.90;;;;;;4990877;28;20035;-57
2023/04/07 02:28:23;;;;;;;24.85;20.67;;;7.00;99.90;;;;;;4990587;28;20069;-59
2023/04/07 02:30:48;;;;;;;24.05;20.70;;;6.90;99.90;;;;;;4989719;28;20440;-56
2023/04/07 02:33:14;;;;;;;24.05;20.23;;;7.00;99.90;;;;;;4990662;28;20035;-60
2023/04/07 02:35:40;;;;;;;23.38;20.83;;;6.90;99.90;;;;;;4990030;28;20112;-57
2023/04/07 02:38:05;;;;;;;24.63;21.65;;;7.00;99.90;;;;;;4990666;28;20657;-57
2023/04/07 02:40:31;;;;;;;24.58;21.45;;;7.00;99.90;;;;;;4991015;28;20038;-59
2023/04/07 02:42:57;;;;;;;26.05;22.05;;;7.00;99.90;;;;;;4990695;28;20042;-59
2023/04/07 02:45:23;;;;;;;25.80;21.50;;;6.90;99.90;;;;;;4989937;28;20497;-59
2023/04/07 02:47:48;;;;;;;24.08;21.02;;;7.00;99.90;;;;;;4990003;28;20061;-59
2023/04/07 02:50:14;;;;;;;23.15;20.38;;;6.90;99.90;;;;;;4989595;28;20078;-58
2023/04/07 02:52:40;;;;;;;22.95;20.02;;;6.90;99.90;;;;;;4990036;28;20105;-59
2023/04/07 02:55:06;;;;;;;25.48;20.95;;;7.20;99.90;;;;;;4990847;28;20053;-59
2023/04/07 02:57:32;;;;;;;24.52;20.95;;;6.90;99.90;;;;;;4993203;28;20049;-60
2023/04/07 02:59:57;;;;;;;24.35;20.52;;;6.90;99.90;;;;;;4998454;28;20042;-59
2023/04/07 03:02:23;;;;;;;25.90;21.08;;;7.00;99.90;;;;;;4989056;28;20042;-59
2023/04/07 03:04:51;;;;;;;23.63;20.42;;;6.90;99.90;;;;;;4989256;28;20054;-59
2023/04/07 03:07:17;;;;;;;24.65;21.50;;;6.90;99.90;;;;;;4989562;28;20381;-59
2023/04/07 03:09:42;;;;;;;23.65;20.77;;;6.90;99.90;;;;;;4990570;28;20112;-59
2023/04/07 03:12:08;;;;;;;25.17;20.90;;;6.90;99.90;;;;;;4990234;28;20481;-57
2023/04/07 03:14:34;;;;;;;24.02;21.30;;;6.90;99.90;;;;;;4989273;28;20053;-58
2023/04/07 03:16:59;;;;;;;26.08;21.63;;;6.90;99.90;;;;;;4990711;28;20046;-59
2023/04/07 03:19:26;;;;;;;25.48;21.17;;;6.90;99.90;;;;;;4989497;28;20058;-57
2023/04/07 03:21:51;;;;;;;25.50;20.42;;;6.90;99.90;;;;;;4989904;28;20046;-59
2023/04/07 03:24:17;;;;;;;23.05;19.88;;;6.90;99.90;;;;;;4989317;28;20047;-58
2023/04/07 03:26:43;;;;;;;24.17;20.70;;;7.10;99.90;;;;;;4989435;28;20050;-60
2023/04/07 03:29:08;;;;;;;23.95;21.10;;;6.90;99.90;;;;;;4988663;28;20042;-59
2023/04/07 03:31:36;;;;;;;23.40;20.90;;;6.90;99.90;;;;;;4989600;28;20488;-59
2023/04/07 03:34:02;;;;;;;25.02;22.33;;;6.90;99.90;;;;;;4989397;28;20053;-58
2023/04/07 03:36:27;;;;;;;24.92;21.15;;;6.80;99.90;;;;;;4989210;28;20129;-58
2023/04/07 03:38:53;;;;;;;24.27;20.92;;;6.90;99.90;;;;;;4989614;28;20121;-60
2023/04/07 03:41:19;;;;;;;25.52;21.58;;;7.00;99.90;;;;;;4989018;28;20492;-59
2023/04/07 03:43:45;;;;;;;25.38;21.58;;;6.90;99.90;;;;;;4988480;28;20049;-59
2023/04/07 03:46:11;;;;;;;24.17;21.20;;;7.60;99.90;;;;;;4989083;28;20038;-59
2023/04/07 03:48:37;;;;;;;23.77;20.85;;;7.30;99.90;;;;;;4989069;28;20034;-59
2023/04/07 03:51:02;;;;;;;25.33;21.42;;;7.10;99.90;;;;;;4989924;28;20042;-59
2023/04/07 03:53:28;;;;;;;27.48;21.52;;;6.80;99.90;;;;;;4989287;28;20053;-58
2023/04/07 03:55:54;;;;;;;25.73;21.17;;;7.10;99.90;;;;;;4988694;28;20130;-59
2023/04/07 03:58:20;;;;;;;24.13;21.50;;;7.00;99.90;;;;;;4995013;28;20082;-59
2023/04/07 04:00:45;;;;;;;25.27;20.23;;;6.80;99.90;;;;;;5005664;28;20046;-59
2023/04/07 04:03:11;;;;;;;23.42;20.90;;;6.80;99.90;;;;;;5008253;28;20492;-58
2023/04/07 04:05:37;;;;;;;25.60;21.58;;;6.80;99.90;;;;;;5008354;28;20137;-55
2023/04/07 04:08:02;;;;;;;24.33;21.25;;;7.00;99.90;;;;;;5008627;28;20062;-60
2023/04/07 04:10:28;;;;;;;25.33;21.95;;;6.80;99.90;;;;;;5008558;28;20700;-54
2023/04/07 04:12:54;;;;;;;24.73;21.92;;;6.70;99.90;;;;;;5006606;28;20126;-59
2023/04/07 04:15:20;;;;;;;25.65;21.92;;;6.80;99.90;;;;;;5007599;28;20045;-59
2023/04/07 04:17:45;;;;;;;26.15;22.40;;;6.70;99.90;;;;;;5007995;28;20606;-59
2023/04/07 04:20:11;;;;;;;26.35;21.73;;;6.80;99.90;;;;;;5008120;28;20092;-56
2023/04/07 04:22:37;;;;;;;25.77;22.67;;;6.80;99.90;;;;;;5008372;28;20038;-56
2023/04/07 04:25:04;;;;;;;25.88;21.95;;;6.80;99.90;;;;;;5008425;28;20124;-59
2023/04/07 04:27:30;;;;;;;25.38;21.75;;;6.80;99.90;;;;;;5007920;28;20038;-58
2023/04/07 04:29:56;;;;;;;26.02;22.65;;;6.70;99.90;;;;;;5007020;28;20061;-59
2023/04/07 04:32:21;;;;;;;26.15;22.40;;;6.70;99.90;;;;;;5007761;28;20042;-56
2023/04/07 04:34:47;;;;;;;26.92;23.50;;;6.70;99.90;;;;;;5008271;28;20081;-59
2023/04/07 04:37:13;;;;;;;27.10;23.05;;;6.70;99.90;;;;;;5006282;28;20038;-58
2023/04/07 04:39:38;;;;;;;30.98;23.80;;;6.70;99.90;;;;;;5007501;28;20061;-56
2023/04/07 04:42:04;;;;;;;29.10;23.60;;;6.70;99.90;;;;;;5007522;28;20042;-59
2023/04/07 04:44:30;;;;;;;26.70;23.40;;;6.70;99.90;;;;;;5006226;28;20065;-58
2023/04/07 04:46:55;;;;;;;30.45;23.42;;;6.70;99.90;;;;;;5005892;28;20042;-58
2023/04/07 04:49:22;;;;;;;29.50;24.58;;;6.70;99.90;;;;;;5006358;28;20790;-59
2023/04/07 04:51:47;;;;;;;29.17;24.42;;;6.70;99.90;;;;;;5007465;28;20045;-59
2023/04/07 04:54:13;;;;;;;30.50;24.25;;;6.70;99.90;;;;;;5007201;28;20168;-57
2023/04/07 04:56:39;;;;;;;28.52;24.58;;;6.70;99.90;;;;;;5007304;28;20048;-59
2023/04/07 04:59:05;;;;;;;29.10;25.17;;;6.70;99.90;;;;;;4998526;28;20054;-59
2023/04/07 05:01:31;;;;;;;30.88;24.55;;;6.60;99.90;;;;;;4987656;28;20046;-59
2023/04/07 05:03:56;;;;;;;29.05;24.42;;;6.60;99.90;;;;;;4987403;28;20050;-59
2023/04/07 05:06:22;;;;;;;29.88;23.92;;;6.90;99.90;;;;;;4987499;28;20038;-59
2023/04/07 05:08:48;;;;;;;30.02;25.13;;;6.60;99.90;;;;;;4987310;28;20058;-61
2023/04/07 05:11:14;;;;;;;30.67;24.60;;;6.60;99.90;;;;;;4987646;28;20536;-59
2023/04/07 05:13:39;;;;;;;30.05;24.98;;;6.70;99.90;;;;;;4987580;28;20042;-59
2023/04/07 05:16:06;;;;;;;29.35;24.15;;;6.60;99.90;;;;;;4987750;28;20489;-58
2023/04/07 05:18:31;;;;;;;31.10;26.15;;;6.70;99.90;;;;;;4987421;28;20096;-59
2023/04/07 05:20:57;;;;;;;32.50;26.85;;;6.70;99.90;;;;;;4987288;28;20042;-59
2023/04/07 05:23:22;;;;;;;31.50;26.60;;;6.70;99.90;;;;;;4987894;28;20049;-59
2023/04/07 05:25:49;;;;;;;31.42;25.88;;;6.70;99.90;;;;;;4986718;28;20046;-59
2023/04/07 05:28:15;;;;;;;33.53;26.17;;;6.60;99.90;;;;;;4985838;28;20075;-59
2023/04/07 05:30:40;;;;;;;31.17;26.30;;;6.70;99.90;;;;;;4987234;28;20073;-58
2023/04/07 05:33:06;;;;;;;32.05;26.52;;;6.70;99.90;;;;;;4987442;28;20074;-60
2023/04/07 05:35:31;;;;;;;34.25;27.48;;;6.80;99.90;;;;;;4986930;28;20046;-58
2023/04/07 05:37:57;;;;;;;32.58;27.38;;;6.70;99.90;;;;;;4987310;28;20125;-57
2023/04/07 05:40:23;;;;;;;32.17;26.25;;;6.70;99.90;;;;;;4987334;28;20371;-59
2023/04/07 05:42:49;;;;;;;35.80;28.50;;;6.50;99.90;;;;;;4986713;28;20547;-60
2023/04/07 05:45:14;;;;;;;31.35;26.45;;;6.70;99.90;;;;;;4984778;28;20097;-58
2023/04/07 05:47:40;;;;;;;32.05;26.35;;;6.70;99.90;;;;;;4987594;28;20058;-57
2023/04/07 05:50:06;;;;;;;32.33;26.40;;;6.70;99.90;;;;;;4987170;28;20829;-59
2023/04/07 05:52:32;;;;;;;34.58;28.17;;;6.80;99.90;;;;;;4985370;28;20068;-58
2023/04/07 05:54:58;;;;;;;33.30;26.70;;;6.80;99.90;;;;;;4987203;28;20046;-59
2023/04/07 05:57:24;;;;;;;32.67;27.00;;;6.80;99.90;;;;;;4988784;28;20442;-59
2023/04/07 05:59:49;;;;;;;35.13;27.77;;;6.70;99.90;;;;;;4994246;28;20125;-59
2023/04/07 06:02:15;;;;;;;32.13;27.73;;;6.80;99.90;;;;;;4987105;28;20038;-59
2023/04/07 06:04:41;;;;;;;32.45;25.98;;;6.80;99.90;;;;;;4987078;28;20654;-60
2023/04/07 06:07:07;;;;;;;31.80;25.85;;;6.90;99.90;;;;;;4986078;28;20069;-60
2023/04/07 06:09:32;;;;;;;31.45;25.80;;;6.90;99.90;;;;;;4986810;28;20096;-59
2023/04/07 06:12:00;;;;;;;29.75;25.23;;;6.90;99.90;;;;;;4986671;28;20113;-56
2023/04/07 06:14:25;;;;;;;30.30;25.55;;;7.00;99.90;;;;;;4999704;28;20054;-57
2023/04/07 06:16:51;;;;;;;33.63;27.02;;;6.90;99.90;;;;;;5006028;28;20358;-58
2023/04/07 06:19:17;;;;;;;30.02;25.10;;;7.00;99.90;;;;;;5006117;28;20115;-59
2023/04/07 06:21:42;;;;;;;29.48;24.73;;;6.90;99.90;;;;;;5006880;28;20046;-58
2023/04/07 06:24:08;;;;;;;33.28;26.20;;;7.30;99.90;;;;;;5005554;28;20435;-59
2023/04/07 06:26:33;;;;;;;30.20;25.70;;;7.00;99.90;;;;;;5006110;28;20169;-59
2023/04/07 06:28:59;;;;;;;31.33;25.85;;;7.00;99.90;;;;;;5005372;28;20509;-58
2023/04/07 06:31:25;;;;;;;32.67;26.92;;;7.10;99.90;;;;;;5004192;28;20050;-57
2023/04/07 06:33:52;;;;;;;33.08;26.73;;;7.10;99.90;;;;;;5006037;28;20104;-56
2023/04/07 06:36:17;;;;;;;30.30;26.05;;;7.10;99.90;;;;;;5006190;28;20045;-58
2023/04/07 06:38:43;;;;;;;34.00;26.90;;;7.10;99.90;;;;;;5006617;28;20049;-57
2023/04/07 06:41:15;;;;;;;33.63;26.50;;;7.20;99.90;;;;;;5005285;28;20045;-55
2023/04/07 06:43:50;;;;;;;35.75;27.80;;;7.50;99.90;;;;;;5005193;28;20053;-58
2023/04/07 06:46:16;;;;;;;35.28;27.20;;;7.20;99.90;;;;;;5005654;28;20042;-56
2023/04/07 06:48:42;;;;;;;33.90;27.95;;;7.40;99.90;;;;;;5006364;28;20424;-58
2023/04/07 06:51:07;;;;;;;33.72;28.38;;;7.30;99.90;;;;;;5006155;28;20053;-58
2023/04/07 06:53:33;;;;;;;37.00;30.45;;;7.30;99.90;;;;;;5006234;28;20042;-58
2023/04/07 06:56:07;;;;;;;35.90;28.95;;;7.40;99.90;;;;;;5006062;28;20061;-58
2023/04/07 06:58:33;;;;;;;36.45;30.13;;;7.50;99.90;;;;;;4999116;28;20054;-59
2023/04/07 07:01:00;;;;;;;33.88;28.50;;;7.50;99.90;;;;;;4987101;28;20093;-58
2023/04/07 07:03:26;;;;;;;37.72;32.10;;;7.50;99.90;;;;;;4985428;28;20050;-58
2023/04/07 07:05:55;;;;;;;40.30;31.40;;;7.60;99.90;;;;;;4986287;28;20061;-58
2023/04/07 07:08:21;;;;;;;37.72;30.75;;;7.80;99.90;;;;;;4986518;28;20501;-59
2023/04/07 07:10:47;;;;;;;36.45;29.50;;;7.90;99.90;;;;;;4989549;28;20105;-59
2023/04/07 07:13:12;;;;;;;35.00;28.85;;;7.90;99.90;;;;;;4989613;28;20428;-59
2023/04/07 07:15:38;;;;;;;37.95;31.67;;;8.00;99.90;;;;;;4990142;28;20042;-59
2023/04/07 07:18:04;;;;;;;38.42;32.00;;;8.10;99.90;;;;;;4989623;28;20129;-59
2023/04/07 07:20:30;;;;;;;32.03;25.83;;;7.90;99.90;;;;;;4989484;28;20140;-59
2023/04/07 07:22:55;;;;;;;37.45;28.08;;;8.00;99.90;;;;;;4989531;28;20039;-55
2023/04/07 07:25:21;;;;;;;35.03;29.45;;;7.80;99.90;;;;;;4989634;28;20043;-59
2023/04/07 07:27:52;;;;;;;33.78;27.33;;;7.70;99.90;;;;;;4988064;28;20096;-59
2023/04/07 07:30:21;;;;;;;35.25;29.33;;;7.70;99.90;;;;;;4989665;28;20456;-59
2023/04/07 07:32:47;;;;;;;33.88;28.10;;;7.70;99.90;;;;;;4990025;28;20466;-59
2023/04/07 07:35:13;;;;;;;35.17;29.13;;;7.70;99.90;;;;;;4988033;28;20218;-59
2023/04/07 07:37:39;;;;;;;33.30;25.38;;;7.70;99.90;;;;;;4989791;28;20182;-58
2023/04/07 07:40:05;;;;;;;33.60;26.80;;;7.90;99.90;;;;;;4989760;28;20287;-60
2023/04/07 07:42:31;;;;;;;34.70;27.88;;;7.80;99.90;;;;;;4989255;28;20042;-58
2023/04/07 07:44:57;;;;;;;28.27;20.63;;;7.80;99.90;;;;;;4989066;28;20469;-58
2023/04/07 07:47:23;;;;;;;28.58;23.08;;;7.90;99.90;;;;;;4989760;28;20046;-55
2023/04/07 07:49:48;;;;;;;28.42;22.55;;;8.00;99.90;;;;;;4989527;28;20093;-58
2023/04/07 07:52:14;;;;;;;29.48;23.85;;;8.00;99.90;;;;;;4989842;28;20038;-59
2023/04/07 07:54:40;;;;;;;31.38;26.25;;;8.00;99.90;;;;;;4988266;28;20042;-58
2023/04/07 07:57:05;;;;;;;28.42;22.10;;;8.10;99.90;;;;;;4990476;28;20107;-60
2023/04/07 07:59:31;;;;;;;31.42;24.55;;;8.20;99.90;;;;;;4996271;28;20108;-59
2023/04/07 08:01:57;;;;;;;29.33;23.63;;;8.30;99.90;;;;;;4989144;28;20054;-56
2023/04/07 08:04:23;;;;;;;28.35;23.95;;;8.50;99.90;;;;;;4988969;28;20050;-59
2023/04/07 08:06:50;;;;;;;26.63;23.52;;;8.50;99.90;;;;;;4988547;28;20081;-56
2023/04/07 08:09:17;;;;;;;27.92;20.83;;;8.50;99.90;;;;;;4989183;28;20050;-58
2023/04/07 08:11:43;;;;;;;27.15;21.73;;;8.50;99.90;;;;;;4991645;28;20038;-58
2023/04/07 08:14:09;;;;;;;27.92;22.33;;;8.50;99.90;;;;;;4987711;28;20046;-58
2023/04/07 08:16:35;;;;;;;24.02;20.50;;;8.70;99.90;;;;;;4988784;28;20056;-58
2023/04/07 08:19:00;;;;;;;22.55;20.10;;;8.80;99.90;;;;;;4989029;28;20061;-58
2023/04/07 08:21:27;;;;;;;24.35;19.55;;;9.00;99.90;;;;;;4987837;28;20061;-57
2023/04/07 08:23:54;;;;;;;22.55;20.08;;;9.00;99.90;;;;;;4988721;28;20054;-58
2023/04/07 08:26:20;;;;;;;22.67;19.17;;;9.20;99.90;;;;;;4989057;28;20077;-58
2023/04/07 08:28:47;;;;;;;20.60;18.33;;;9.40;99.90;;;;;;4988104;28;20046;-57
2023/04/07 08:31:13;;;;;;;22.75;19.60;;;9.60;99.90;;;;;;4988145;28;20065;-55
2023/04/07 08:33:39;;;;;;;23.80;18.33;;;9.80;99.90;;;;;;4988483;28;20050;-58
2023/04/07 08:36:05;;;;;;;20.90;17.20;;;9.80;99.90;;;;;;4988535;28;20061;-57
2023/04/07 08:38:30;;;;;;;20.45;16.15;;;10.00;99.90;;;;;;4988226;28;20058;-56
2023/04/07 08:41:12;;;;;;;21.15;16.65;;;10.20;99.90;;;;;;4988783;28;20157;-57
2023/04/07 08:43:38;;;;;;;19.65;15.90;;;10.30;99.90;;;;;;4986935;28;20054;-62
2023/04/07 08:46:04;;;;;;;19.52;16.83;;;10.20;99.90;;;;;;4987651;28;20053;-65
2023/04/07 08:48:34;;;;;;;20.88;16.48;;;10.20;99.90;;;;;;4988129;28;20382;-66
2023/04/07 08:51:05;;;;;;;19.20;14.35;;;10.30;99.90;;;;;;4988103;28;20046;-66
2023/04/07 08:53:42;;;;;;;19.05;15.10;;;10.30;99.90;;;;;;4988034;28;20050;-66
2023/04/07 08:56:10;;;;;;;18.45;14.10;;;10.40;99.90;;;;;;4988176;28;20050;-66
2023/04/07 08:58:37;;;;;;;18.65;14.38;;;10.50;99.90;;;;;;4997310;28;20061;-62
2023/04/07 09:01:05;;;;;;;12.80;8.27;;;10.60;99.90;;;;;;4987900;28;20043;-65
2023/04/07 09:03:32;;;;;;;17.85;14.50;;;10.90;99.90;;;;;;4986481;28;20054;-60
2023/04/07 09:06:00;;;;;;;17.85;12.32;;;10.90;99.90;;;;;;4987811;28;20130;-61
2023/04/07 09:08:26;;;;;;;20.42;13.73;;;10.80;99.90;;;;;;4987895;28;20054;-66
2023/04/07 09:10:52;;;;;;;16.90;13.50;;;10.70;99.90;;;;;;4988378;28;20053;-66
2023/04/07 09:13:17;;;;;;;17.50;13.65;;;10.90;99.90;;;;;;4986872;28;20401;-65
2023/04/07 09:15:43;;;;;;;16.30;13.05;;;11.10;99.90;;;;;;4987158;28;20074;-59
2023/04/07 09:18:09;;;;;;;16.38;13.20;;;11.40;99.90;;;;;;4986594;28;20620;-62
2023/04/07 09:21:01;;;;;;;14.20;11.52;;;11.70;99.90;;;;;;4988030;28;20042;-62
2023/04/07 09:23:29;;;;;;;14.40;11.63;;;11.90;99.90;;;;;;4987950;28;20096;-61
2023/04/07 09:25:55;;;;;;;14.02;11.55;;;11.70;99.90;;;;;;4986133;28;20051;-60
2023/04/07 09:28:21;;;;;;;13.75;11.95;;;11.50;99.90;;;;;;4986379;28;20374;-58
2023/04/07 09:30:54;;;;;;;15.90;11.63;;;11.40;99.90;;;;;;4987705;28;20038;-62
2023/04/07 09:33:27;;;;;;;13.88;10.25;;;11.20;99.90;;;;;;4987824;28;20074;-64
2023/04/07 09:35:53;;;;;;;13.32;7.07;;;11.00;99.90;;;;;;4987315;28;20053;-67
2023/04/07 09:38:19;;;;;;;14.90;10.45;;;10.90;99.90;;;;;;4987109;28;20069;-64
2023/04/07 09:40:44;;;;;;;13.25;10.23;;;10.90;99.90;;;;;;4987243;28;20575;-64
2023/04/07 09:43:19;;;;;;;16.52;11.57;;;10.90;99.90;;;;;;4985846;28;20076;-67
2023/04/07 09:45:45;;;;;;;12.63;10.48;;;11.10;99.90;;;;;;4987690;28;20112;-66
2023/04/07 09:48:19;;;;;;;12.90;9.82;;;11.20;99.90;;;;;;4987529;28;20045;-68
2023/04/07 09:50:48;;;;;;;12.35;9.80;;;11.30;99.90;;;;;;4985708;28;20050;-68
2023/04/07 09:53:19;;;;;;;12.90;9.95;;;11.30;99.90;;;;;;4985876;28;20081;-63
2023/04/07 09:55:45;;;;;;;11.65;9.40;;;11.50;99.90;;;;;;4987372;28;20386;-66
2023/04/07 09:58:15;;;;;;;13.10;9.43;;;11.90;99.90;;;;;;4993428;28;20042;-69
2023/04/07 10:00:41;;;;;;;11.15;7.75;;;12.20;99.90;;;;;;4990135;28;20053;-70
2023/04/07 10:03:07;;;;;;;10.43;9.00;;;12.30;99.90;;;;;;4986878;28;20050;-70
2023/04/07 10:05:36;;;;;;;12.30;8.98;;;12.20;99.90;;;;;;5001874;28;20042;-69
2023/04/07 10:08:02;;;;;;;10.50;8.00;;;12.30;99.90;;;;;;5001874;28;20066;-67
2023/04/07 10:10:30;;;;;;;11.23;8.07;;;12.40;99.90;;;;;;4994125;28;20049;-56
2023/04/07 10:12:57;;;;;;;9.73;6.70;;;12.50;99.90;;;;;;5004518;28;20049;-66
2023/04/07 10:15:23;;;;;;;9.73;7.88;;;12.60;99.90;;;;;;5006499;28;20425;-68
2023/04/07 10:17:50;;;;;;;9.98;7.55;;;12.60;99.90;;;;;;5005103;28;20045;-66
2023/04/07 10:20:19;;;;;;;10.45;7.97;;;12.60;99.90;;;;;;5004527;28;20439;-60
2023/04/07 10:22:47;;;;;;;10.70;8.10;;;12.70;99.90;;;;;;5005842;28;20042;-68
2023/04/07 10:25:15;;;;;;;8.70;7.70;;;12.50;99.90;;;;;;5005973;28;20053;-67
2023/04/07 10:28:05;;;;;;;9.68;8.07;;;13.10;99.90;;;;;;4997770;28;20121;-66
2023/04/07 10:30:32;;;;;;;10.10;7.78;;;13.30;99.90;;;;;;4986544;28;20074;-65
2023/04/07 10:32:59;;;;;;;10.38;8.10;;;13.50;99.90;;;;;;4991250;28;20056;-68
2023/04/07 10:35:24;;;;;;;10.27;7.93;;;13.80;99.90;;;;;;4986281;28;20536;-68
2023/04/07 10:38:10;;;;;;;13.98;8.20;;;14.20;99.90;;;;;;4985745;28;20038;-62
2023/04/07 10:40:36;;;;;;;10.20;8.05;;;14.50;99.90;;;;;;4985455;28;20058;-55
2023/04/07 10:43:03;;;;;;;12.27;7.70;;;14.50;99.90;;;;;;5004555;28;20833;-68
2023/04/07 10:45:47;;;;;;;12.55;8.40;;;14.70;99.90;;;;;;5008652;28;20056;-65
2023/04/07 10:48:15;;;;;;;12.05;9.00;;;14.80;98.50;;;;;;5009772;28;20034;-70
2023/04/07 10:50:41;;;;;;;9.15;7.13;;;14.70;98.70;;;;;;5009804;28;20049;-68
2023/04/07 10:53:14;;;;;;;9.05;7.97;;;14.90;96.50;;;;;;5009839;28;20100;-58
2023/04/07 10:55:52;;;;;;;12.20;7.75;;;15.10;93.90;;;;;;5008923;28;20038;-58
2023/04/07 10:58:21;;;;;;;10.65;8.43;;;15.20;92.70;;;;;;5000578;28;20048;-67
2023/04/07 11:01:02;;;;;;;9.30;8.07;;;15.20;90.90;;;;;;5006820;28;20081;-68
2023/04/07 11:03:29;;;;;;;10.88;8.93;;;15.10;89.50;;;;;;5008552;28;20046;-58
2023/04/07 11:06:08;;;;;;;10.32;8.95;;;14.90;91.50;;;;;;4990137;28;20038;-63
2023/04/07 11:08:41;;;;;;;10.70;8.65;;;14.90;91.70;;;;;;4989827;28;20390;-69
2023/04/07 11:11:09;;;;;;;11.73;7.95;;;14.90;89.50;;;;;;4989824;28;20058;-68
2023/04/07 11:13:41;;;;;;;11.05;8.75;;;14.70;90.80;;;;;;4988298;28;20045;-65
2023/04/07 11:16:08;;;;;;;9.35;8.35;;;14.60;91.10;;;;;;4988654;28;20057;-68
2023/04/07 11:18:36;;;;;;;10.50;8.65;;;14.60;89.80;;;;;;4989894;28;20097;-66
2023/04/07 11:21:04;;;;;;;10.20;9.07;;;14.40;88.10;;;;;;4989131;28;20061;-63
2023/04/07 11:23:36;;;;;;;11.68;9.05;;;14.60;87.30;;;;;;4988308;28;20097;-67
2023/04/07 11:26:02;;;;;;;10.65;9.25;;;14.80;85.80;;;;;;4989477;28;20046;-63
2023/04/07 11:28:28;;;;;;;12.68;9.02;;;15.10;84.60;;;;;;4987248;28;20149;-71
2023/04/07 11:30:55;;;;;;;10.65;9.02;;;15.20;84.60;;;;;;5009241;28;20042;-68
2023/04/07 11:33:29;;;;;;;10.77;8.82;;;15.30;82.60;;;;;;5008849;28;20056;-68
2023/04/07 11:36:00;;;;;;;12.80;9.38;;;15.10;81.80;;;;;;5008681;28;20042;-71
2023/04/07 11:38:28;;;;;;;10.05;8.93;;;14.70;81.40;;;;;;5008523;28;20045;-68
2023/04/07 11:40:55;;;;;;;10.57;9.20;;;14.70;81.30;;;;;;5008745;28;20714;-72
2023/04/07 11:43:25;;;;;;;10.65;8.73;;;14.70;81.70;;;;;;5006941;28;20045;-69
2023/04/07 11:46:22;;;;;;;10.63;8.82;;;14.80;81.20;;;;;;5008643;28;20425;-72
2023/04/07 11:48:48;;;;;;;12.27;9.13;;;14.80;80.40;;;;;;5000752;28;20049;-62
2023/04/07 11:51:22;;;;;;;11.10;9.23;;;14.80;80.20;;;;;;5021530;28;20048;-66
2023/04/07 11:53:55;;;;;;;;;;;15.00;79.80;;;;;;5028012;28;20132;-59
2023/04/07 11:56:21;;;;;;;12.02;8.57;;;15.00;79.80;;;;;;5026436;28;19922;-69
2023/04/07 11:58:48;;;;;;;12.57;9.60;;;15.10;79.30;;;;;;5001705;28;20041;-69
2023/04/07 12:01:13;;;;;;;10.15;8.48;;;14.90;80.80;;;;;;5006984;28;20121;-63
2023/04/07 12:04:03;;;;;;;11.55;9.73;;;14.80;80.50;;;;;;5004986;28;20124;-59
2023/04/07 12:06:33;;;;;;;11.30;9.48;;;14.70;79.90;;;;;;4988083;28;20454;-64
2023/04/07 12:09:02;;;;;;;12.95;9.93;;;14.50;82.00;;;;;;4988314;28;20414;-64
2023/04/07 12:11:28;;;;;;;12.05;9.60;;;14.80;82.80;;;;;;4989369;28;20446;-63
2023/04/07 12:13:55;;;;;;;12.02;9.90;;;14.80;79.60;;;;;;4985339;28;20493;-63
2023/04/07 12:16:21;;;;;;;12.75;10.05;;;14.70;79.00;;;;;;4989438;28;20038;-61
2023/04/07 12:18:48;;;;;;;12.85;8.82;;;14.60;80.00;;;;;;4991593;28;20046;-63
2023/04/07 12:21:14;;;;;;;13.60;9.93;;;14.50;79.90;;;;;;4987439;28;20042;-64
2023/04/07 12:23:40;;;;;;;14.18;10.20;;;14.70;80.60;;;;;;4988274;28;20056;-64
2023/04/07 12:26:06;;;;;;;13.38;11.23;;;14.80;81.00;;;;;;4987181;28;20054;-60
2023/04/07 12:28:32;;;;;;;12.88;9.35;;;15.10;81.30;;;;;;4987636;28;20058;-59
2023/04/07 12:30:58;;;;;;;12.32;10.38;;;15.30;78.90;;;;;;4988025;28;20109;-63
2023/04/07 12:33:23;;;;;;;11.35;9.20;;;15.20;80.50;;;;;;4988298;28;20061;-57
2023/04/07 12:35:49;;;;;;;15.40;11.15;;;15.20;79.20;;;;;;4988164;28;20074;-62
2023/04/07 12:38:15;;;;;;;16.67;11.70;;;15.10;80.90;;;;;;4987637;28;20042;-63
2023/04/07 12:40:40;;;;;;;15.55;11.63;;;14.90;82.30;;;;;;4988535;28;20130;-64
2023/04/07 12:43:06;;;;;;;16.35;12.00;;;14.80;81.70;;;;;;4969868;28;20038;-61